sensor_id;sensor_type;location;lat;lon;timestamp;temperature;humidity
13496;DHT22;6820;49.374;8.452;2023-08-06T00:01:28;19.09;99.99
13496;DHT22;6820;49.374;8.452;2023-08-06T00:05:30;19.07;99.99
13496;DHT22;6820;49.374;8.452;2023-08-06T00:09:32;19.06;99.99
13496;DHT22;6820;49.374;8.452;2023-08-06T00:13:33;19.06;99.99
13496;DHT22;6820;49.374;8.452;2023-08-06T00:17:35;19.07;99.99
13496;DHT22;6820;49.374;8.452;2023-08-06T00:21:37;19.05;99.99
13496;DHT22;6820;49.374;8.452;2023-08-06T00:25:40;19.02;99.99
13496;DHT22;6820;49.374;8.452;2023-08-06T00:29:42;19.02;99.99
13496;DHT22;6820;49.374;8.452;2023-08-06T00:33:43;18.96;99.99
13496;DHT22;6820;49.374;8.452;2023-08-06T00:37:45;18.94;99.99
13496;DHT22;6820;49.374;8.452;2023-08-06T00:41:47;19.01;99.99
13496;DHT22;6820;49.374;8.452;2023-08-06T00:45:49;19.02;99.99
13496;DHT22;6820;49.374;8.452;2023-08-06T00:49:50;19.01;99.99
13496;DHT22;6820;49.374;8.452;2023-08-06T00:53:52;18.94;99.99
13496;DHT22;6820;49.374;8.452;2023-08-06T00:57:54;18.93;99.99
13496;DHT22;6820;49.374;8.452;2023-08-06T01:01:58;18.86;99.99
13496;DHT22;6820;49.374;8.452;2023-08-06T01:06:00;18.83;99.99
13496;DHT22;6820;49.374;8.452;2023-08-06T01:10:12;18.75;99.99
13496;DHT22;6820;49.374;8.452;2023-08-06T01:14:33;18.71;99.99
13496;DHT22;6820;49.374;8.452;2023-08-06T01:18:38;18.64;99.99
13496;DHT22;6820;49.374;8.452;2023-08-06T01:22:40;18.59;99.99
13496;DHT22;6820;49.374;8.452;2023-08-06T01:26:42;18.56;99.99
13496;DHT22;6820;49.374;8.452;2023-08-06T01:30:48;18.56;99.99
13496;DHT22;6820;49.374;8.452;2023-08-06T01:34:51;18.50;99.99
13496;DHT22;6820;49.374;8.452;2023-08-06T01:38:55;18.41;99.99
13496;DHT22;6820;49.374;8.452;2023-08-06T01:42:59;18.35;99.99
13496;DHT22;6820;49.374;8.452;2023-08-06T01:47:01;18.35;99.99
13496;DHT22;6820;49.374;8.452;2023-08-06T01:51:06;18.38;99.99
13496;DHT22;6820;49.374;8.452;2023-08-06T01:55:08;18.31;99.99
13496;DHT22;6820;49.374;8.452;2023-08-06T01:59:09;18.32;99.99
13496;DHT22;6820;49.374;8.452;2023-08-06T02:03:11;18.35;99.99
13496;DHT22;6820;49.374;8.452;2023-08-06T02:07:12;18.36;99.99
13496;DHT22;6820;49.374;8.452;2023-08-06T02:11:14;18.39;99.99
13496;DHT22;6820;49.374;8.452;2023-08-06T02:15:16;18.41;99.99
13496;DHT22;6820;49.374;8.452;2023-08-06T02:19:17;18.44;99.99
13496;DHT22;6820;49.374;8.452;2023-08-06T02:23:20;18.42;99.99
13496;DHT22;6820;49.374;8.452;2023-08-06T02:27:22;18.42;99.99
13496;DHT22;6820;49.374;8.452;2023-08-06T02:31:23;18.34;99.99
13496;DHT22;6820;49.374;8.452;2023-08-06T02:35:25;18.29;99.99
13496;DHT22;6820;49.374;8.452;2023-08-06T02:39:27;18.26;99.99
13496;DHT22;6820;49.374;8.452;2023-08-06T02:43:28;18.19;99.99
13496;DHT22;6820;49.374;8.452;2023-08-06T02:47:30;18.11;99.99
13496;DHT22;6820;49.374;8.452;2023-08-06T02:51:33;18.01;99.99
13496;DHT22;6820;49.374;8.452;2023-08-06T02:55:35;17.95;99.99
13496;DHT22;6820;49.374;8.452;2023-08-06T02:59:42;17.83;99.99
13496;DHT22;6820;49.374;8.452;2023-08-06T03:03:50;17.68;99.99
13496;DHT22;6820;49.374;8.452;2023-08-06T03:07:59;17.70;99.99
13496;DHT22;6820;49.374;8.452;2023-08-06T03:12:03;17.63;99.99
13496;DHT22;6820;49.374;8.452;2023-08-06T03:16:06;17.62;99.99
13496;DHT22;6820;49.374;8.452;2023-08-06T03:20:08;17.68;99.99
13496;DHT22;6820;49.374;8.452;2023-08-06T03:24:10;17.71;99.99
13496;DHT22;6820;49.374;8.452;2023-08-06T03:28:13;17.76;99.99
13496;DHT22;6820;49.374;8.452;2023-08-06T03:32:17;17.81;99.99
13496;DHT22;6820;49.374;8.452;2023-08-06T03:36:19;17.84;99.99
13496;DHT22;6820;49.374;8.452;2023-08-06T03:40:24;17.92;99.99
13496;DHT22;6820;49.374;8.452;2023-08-06T03:44:27;17.92;99.99
13496;DHT22;6820;49.374;8.452;2023-08-06T03:48:29;17.95;99.99
13496;DHT22;6820;49.374;8.452;2023-08-06T03:52:32;17.91;99.99
13496;DHT22;6820;49.374;8.452;2023-08-06T03:56:34;17.87;99.99
13496;DHT22;6820;49.374;8.452;2023-08-06T04:00:35;17.89;99.99
13496;DHT22;6820;49.374;8.452;2023-08-06T04:04:37;17.83;99.99
13496;DHT22;6820;49.374;8.452;2023-08-06T04:08:39;17.84;99.99
13496;DHT22;6820;49.374;8.452;2023-08-06T04:12:41;17.84;99.99
13496;DHT22;6820;49.374;8.452;2023-08-06T04:16:43;17.80;99.99
13496;DHT22;6820;49.374;8.452;2023-08-06T04:20:45;17.79;99.99
13496;DHT22;6820;49.374;8.452;2023-08-06T04:24:50;17.76;99.99
13496;DHT22;6820;49.374;8.452;2023-08-06T04:28:52;17.79;99.99
13496;DHT22;6820;49.374;8.452;2023-08-06T04:32:56;17.74;99.99
13496;DHT22;6820;49.374;8.452;2023-08-06T04:36:59;17.77;99.99
13496;DHT22;6820;49.374;8.452;2023-08-06T04:41:02;17.74;99.99
13496;DHT22;6820;49.374;8.452;2023-08-06T04:45:05;17.77;99.99
13496;DHT22;6820;49.374;8.452;2023-08-06T04:49:07;17.76;99.99
13496;DHT22;6820;49.374;8.452;2023-08-06T04:53:09;17.76;99.99
13496;DHT22;6820;49.374;8.452;2023-08-06T04:57:10;17.73;99.99
13496;DHT22;6820;49.374;8.452;2023-08-06T05:01:12;17.70;99.99
13496;DHT22;6820;49.374;8.452;2023-08-06T05:05:14;17.65;99.99
13496;DHT22;6820;49.374;8.452;2023-08-06T05:09:16;17.60;99.99
13496;DHT22;6820;49.374;8.452;2023-08-06T05:13:17;17.55;99.99
13496;DHT22;6820;49.374;8.452;2023-08-06T05:17:19;17.54;99.99
13496;DHT22;6820;49.374;8.452;2023-08-06T05:21:20;17.54;99.99
13496;DHT22;6820;49.374;8.452;2023-08-06T05:25:22;17.54;99.99
13496;DHT22;6820;49.374;8.452;2023-08-06T05:29:24;17.57;99.99
13496;DHT22;6820;49.374;8.452;2023-08-06T05:33:25;17.49;99.99
13496;DHT22;6820;49.374;8.452;2023-08-06T05:37:27;17.39;99.99
13496;DHT22;6820;49.374;8.452;2023-08-06T05:41:28;17.42;99.99
13496;DHT22;6820;49.374;8.452;2023-08-06T05:45:30;17.46;99.99
13496;DHT22;6820;49.374;8.452;2023-08-06T05:49:32;17.47;99.99
13496;DHT22;6820;49.374;8.452;2023-08-06T05:53:33;17.49;99.99
13496;DHT22;6820;49.374;8.452;2023-08-06T05:57:35;17.47;99.99
13496;DHT22;6820;49.374;8.452;2023-08-06T06:01:36;17.51;99.99
13496;DHT22;6820;49.374;8.452;2023-08-06T06:05:38;17.47;99.99
13496;DHT22;6820;49.374;8.452;2023-08-06T06:09:40;17.55;99.99
13496;DHT22;6820;49.374;8.452;2023-08-06T06:13:42;17.60;99.99
13496;DHT22;6820;49.374;8.452;2023-08-06T06:17:43;17.65;99.99
13496;DHT22;6820;49.374;8.452;2023-08-06T06:21:45;17.63;99.99
13496;DHT22;6820;49.374;8.452;2023-08-06T06:25:47;17.66;99.99
13496;DHT22;6820;49.374;8.452;2023-08-06T06:29:50;17.66;99.99
13496;DHT22;6820;49.374;8.452;2023-08-06T06:33:53;17.74;99.99
13496;DHT22;6820;49.374;8.452;2023-08-06T06:37:55;17.79;99.99
13496;DHT22;6820;49.374;8.452;2023-08-06T06:41:57;17.84;99.99
13496;DHT22;6820;49.374;8.452;2023-08-06T06:46:06;17.84;99.99
13496;DHT22;6820;49.374;8.452;2023-08-06T06:50:07;17.86;99.99
13496;DHT22;6820;49.374;8.452;2023-08-06T06:54:09;17.87;99.99
13496;DHT22;6820;49.374;8.452;2023-08-06T06:58:11;17.94;99.99
13496;DHT22;6820;49.374;8.452;2023-08-06T07:02:13;18.07;99.99
13496;DHT22;6820;49.374;8.452;2023-08-06T07:06:14;18.11;99.99
13496;DHT22;6820;49.374;8.452;2023-08-06T07:10:17;18.16;99.99
13496;DHT22;6820;49.374;8.452;2023-08-06T07:14:18;18.20;99.99
13496;DHT22;6820;49.374;8.452;2023-08-06T07:18:20;18.39;99.99
13496;DHT22;6820;49.374;8.452;2023-08-06T07:22:22;18.56;99.99
13496;DHT22;6820;49.374;8.452;2023-08-06T07:26:23;18.62;99.99
13496;DHT22;6820;49.374;8.452;2023-08-06T07:30:25;18.54;99.99
13496;DHT22;6820;49.374;8.452;2023-08-06T07:34:27;18.42;99.99
13496;DHT22;6820;49.374;8.452;2023-08-06T07:38:29;18.34;99.99
13496;DHT22;6820;49.374;8.452;2023-08-06T07:42:31;18.34;99.99
13496;DHT22;6820;49.374;8.452;2023-08-06T07:46:33;18.36;99.99
13496;DHT22;6820;49.374;8.452;2023-08-06T07:50:34;18.53;99.99
13496;DHT22;6820;49.374;8.452;2023-08-06T07:54:36;18.79;99.99
13496;DHT22;6820;49.374;8.452;2023-08-06T07:58:37;18.96;99.99
13496;DHT22;6820;49.374;8.452;2023-08-06T08:02:39;19.10;99.99
13496;DHT22;6820;49.374;8.452;2023-08-06T08:06:41;19.09;99.99
13496;DHT22;6820;49.374;8.452;2023-08-06T08:10:43;19.20;99.99
13496;DHT22;6820;49.374;8.452;2023-08-06T08:14:44;19.17;99.99
13496;DHT22;6820;49.374;8.452;2023-08-06T08:18:46;18.93;99.99
13496;DHT22;6820;49.374;8.452;2023-08-06T08:22:48;18.66;99.99
13496;DHT22;6820;49.374;8.452;2023-08-06T08:26:50;18.57;99.99
13496;DHT22;6820;49.374;8.452;2023-08-06T08:30:53;18.59;99.99
13496;DHT22;6820;49.374;8.452;2023-08-06T08:34:54;18.83;99.99
13496;DHT22;6820;49.374;8.452;2023-08-06T08:38:56;19.10;99.99
13496;DHT22;6820;49.374;8.452;2023-08-06T08:43:01;19.12;99.99
13496;DHT22;6820;49.374;8.452;2023-08-06T08:47:03;19.17;99.99
13496;DHT22;6820;49.374;8.452;2023-08-06T08:51:06;19.31;99.99
13496;DHT22;6820;49.374;8.452;2023-08-06T08:55:08;19.53;99.99
13496;DHT22;6820;49.374;8.452;2023-08-06T08:59:10;19.57;99.99
13496;DHT22;6820;49.374;8.452;2023-08-06T09:03:12;19.34;99.99
13496;DHT22;6820;49.374;8.452;2023-08-06T09:07:16;19.31;99.99
13496;DHT22;6820;49.374;8.452;2023-08-06T09:11:21;19.38;99.99
13496;DHT22;6820;49.374;8.452;2023-08-06T09:15:26;19.53;99.99
13496;DHT22;6820;49.374;8.452;2023-08-06T09:19:28;19.68;99.99
13496;DHT22;6820;49.374;8.452;2023-08-06T09:23:30;19.78;99.99
13496;DHT22;6820;49.374;8.452;2023-08-06T09:27:32;19.80;99.99
13496;DHT22;6820;49.374;8.452;2023-08-06T09:31:55;19.68;99.99
13496;DHT22;6820;49.374;8.452;2023-08-06T09:35:56;19.50;99.99
13496;DHT22;6820;49.374;8.452;2023-08-06T09:39:58;19.31;99.99
13496;DHT22;6820;49.374;8.452;2023-08-06T09:43:59;19.12;99.99
13496;DHT22;6820;49.374;8.452;2023-08-06T09:48:04;18.94;99.99
13496;DHT22;6820;49.374;8.452;2023-08-06T09:52:08;18.87;99.99
13496;DHT22;6820;49.374;8.452;2023-08-06T09:56:12;18.84;99.99
13496;DHT22;6820;49.374;8.452;2023-08-06T10:00:15;18.91;99.99
13496;DHT22;6820;49.374;8.452;2023-08-06T10:04:19;18.91;99.99
13496;DHT22;6820;49.374;8.452;2023-08-06T10:08:25;19.02;99.99
13496;DHT22;6820;49.374;8.452;2023-08-06T10:12:28;18.99;99.99
13496;DHT22;6820;49.374;8.452;2023-08-06T10:16:33;18.93;99.99
13496;DHT22;6820;49.374;8.452;2023-08-06T10:20:36;18.83;99.99
13496;DHT22;6820;49.374;8.452;2023-08-06T10:24:47;18.64;99.99
13496;DHT22;6820;49.374;8.452;2023-08-06T10:28:53;18.47;99.99
13496;DHT22;6820;49.374;8.452;2023-08-06T10:32:59;18.38;99.99
13496;DHT22;6820;49.374;8.452;2023-08-06T10:37:02;18.25;99.99
13496;DHT22;6820;49.374;8.452;2023-08-06T10:41:04;18.17;99.99
13496;DHT22;6820;49.374;8.452;2023-08-06T10:45:15;18.09;99.99
13496;DHT22;6820;49.374;8.452;2023-08-06T10:49:20;18.01;99.99
13496;DHT22;6820;49.374;8.452;2023-08-06T10:53:22;17.92;99.99
13496;DHT22;6820;49.374;8.452;2023-08-06T10:57:23;17.92;99.99
13496;DHT22;6820;49.374;8.452;2023-08-06T11:01:26;17.95;99.99
13496;DHT22;6820;49.374;8.452;2023-08-06T11:05:34;17.94;99.99
13496;DHT22;6820;49.374;8.452;2023-08-06T11:09:37;17.91;99.99
13496;DHT22;6820;49.374;8.452;2023-08-06T11:13:42;17.92;99.99
13496;DHT22;6820;49.374;8.452;2023-08-06T11:17:47;17.91;99.99
13496;DHT22;6820;49.374;8.452;2023-08-06T11:21:51;17.95;99.99
13496;DHT22;6820;49.374;8.452;2023-08-06T11:25:53;17.96;99.99
13496;DHT22;6820;49.374;8.452;2023-08-06T11:29:55;18.14;99.99
13496;DHT22;6820;49.374;8.452;2023-08-06T11:33:56;18.19;99.99
13496;DHT22;6820;49.374;8.452;2023-08-06T11:37:58;18.29;99.99
13496;DHT22;6820;49.374;8.452;2023-08-06T11:42:05;18.35;99.99
13496;DHT22;6820;49.374;8.452;2023-08-06T11:46:07;18.38;99.99
13496;DHT22;6820;49.374;8.452;2023-08-06T11:50:09;18.32;99.99
13496;DHT22;6820;49.374;8.452;2023-08-06T11:54:32;18.29;99.99
13496;DHT22;6820;49.374;8.452;2023-08-06T11:58:38;18.28;99.99
13496;DHT22;6820;49.374;8.452;2023-08-06T12:02:43;18.23;99.99
13496;DHT22;6820;49.374;8.452;2023-08-06T12:06:45;18.14;99.99
13496;DHT22;6820;49.374;8.452;2023-08-06T12:10:47;18.16;99.99
13496;DHT22;6820;49.374;8.452;2023-08-06T12:14:49;18.17;99.99
13496;DHT22;6820;49.374;8.452;2023-08-06T12:18:51;18.10;99.99
13496;DHT22;6820;49.374;8.452;2023-08-06T12:22:52;18.11;99.99
13496;DHT22;6820;49.374;8.452;2023-08-06T12:26:54;18.14;99.99
13496;DHT22;6820;49.374;8.452;2023-08-06T12:30:58;18.17;99.99
13496;DHT22;6820;49.374;8.452;2023-08-06T12:35:00;18.11;99.99
13496;DHT22;6820;49.374;8.452;2023-08-06T12:39:02;18.19;99.99
13496;DHT22;6820;49.374;8.452;2023-08-06T12:43:04;18.02;99.99
13496;DHT22;6820;49.374;8.452;2023-08-06T12:47:09;17.94;99.99
13496;DHT22;6820;49.374;8.452;2023-08-06T12:51:10;17.96;99.99
13496;DHT22;6820;49.374;8.452;2023-08-06T12:55:12;18.07;99.99
13496;DHT22;6820;49.374;8.452;2023-08-06T12:59:14;18.16;99.99
13496;DHT22;6820;49.374;8.452;2023-08-06T13:03:17;18.25;99.99
13496;DHT22;6820;49.374;8.452;2023-08-06T13:07:19;18.32;99.99
13496;DHT22;6820;49.374;8.452;2023-08-06T13:11:20;18.35;99.99
13496;DHT22;6820;49.374;8.452;2023-08-06T13:15:22;18.32;99.99
13496;DHT22;6820;49.374;8.452;2023-08-06T13:19:24;18.10;99.99
13496;DHT22;6820;49.374;8.452;2023-08-06T13:23:25;18.10;99.99
13496;DHT22;6820;49.374;8.452;2023-08-06T13:27:27;18.07;99.99
13496;DHT22;6820;49.374;8.452;2023-08-06T13:31:29;18.05;99.99
13496;DHT22;6820;49.374;8.452;2023-08-06T13:35:30;18.13;99.99
13496;DHT22;6820;49.374;8.452;2023-08-06T13:39:32;18.11;99.99
13496;DHT22;6820;49.374;8.452;2023-08-06T13:43:33;18.16;99.99
13496;DHT22;6820;49.374;8.452;2023-08-06T13:47:35;18.14;99.99
13496;DHT22;6820;49.374;8.452;2023-08-06T13:51:37;18.17;99.99
13496;DHT22;6820;49.374;8.452;2023-08-06T13:55:39;18.16;99.99
13496;DHT22;6820;49.374;8.452;2023-08-06T13:59:41;18.17;99.99
13496;DHT22;6820;49.374;8.452;2023-08-06T14:03:45;18.16;99.99
13496;DHT22;6820;49.374;8.452;2023-08-06T14:07:46;18.10;99.99
13496;DHT22;6820;49.374;8.452;2023-08-06T14:11:48;18.07;99.99
13496;DHT22;6820;49.374;8.452;2023-08-06T14:15:50;17.98;99.99
13496;DHT22;6820;49.374;8.452;2023-08-06T14:19:51;18.01;99.99
13496;DHT22;6820;49.374;8.452;2023-08-06T14:23:53;18.05;99.99
13496;DHT22;6820;49.374;8.452;2023-08-06T14:27:55;18.05;99.99
13496;DHT22;6820;49.374;8.452;2023-08-06T14:31:56;18.10;99.99
13496;DHT22;6820;49.374;8.452;2023-08-06T14:35:58;18.23;99.99
13496;DHT22;6820;49.374;8.452;2023-08-06T14:39:59;18.21;99.99
13496;DHT22;6820;49.374;8.452;2023-08-06T14:44:01;18.29;99.99
13496;DHT22;6820;49.374;8.452;2023-08-06T14:48:03;18.46;99.99
13496;DHT22;6820;49.374;8.452;2023-08-06T14:52:05;18.46;99.99
13496;DHT22;6820;49.374;8.452;2023-08-06T14:56:08;18.25;99.99
13496;DHT22;6820;49.374;8.452;2023-08-06T15:00:10;17.87;99.99
13496;DHT22;6820;49.374;8.452;2023-08-06T15:04:12;17.57;99.99
13496;DHT22;6820;49.374;8.452;2023-08-06T15:08:13;17.39;99.99
13496;DHT22;6820;49.374;8.452;2023-08-06T15:12:15;17.38;99.99
13496;DHT22;6820;49.374;8.452;2023-08-06T15:16:18;17.39;99.99
13496;DHT22;6820;49.374;8.452;2023-08-06T15:20:20;17.36;99.99
13496;DHT22;6820;49.374;8.452;2023-08-06T15:24:24;17.36;99.99
13496;DHT22;6820;49.374;8.452;2023-08-06T15:28:27;17.33;99.99
13496;DHT22;6820;49.374;8.452;2023-08-06T15:32:28;17.30;99.99
13496;DHT22;6820;49.374;8.452;2023-08-06T15:36:31;17.17;99.99
13496;DHT22;6820;49.374;8.452;2023-08-06T15:40:36;17.06;99.99
13496;DHT22;6820;49.374;8.452;2023-08-06T15:44:38;16.95;99.99
13496;DHT22;6820;49.374;8.452;2023-08-06T15:48:39;16.98;99.99
13496;DHT22;6820;49.374;8.452;2023-08-06T15:52:41;16.92;99.99
13496;DHT22;6820;49.374;8.452;2023-08-06T15:56:43;16.96;99.99
13496;DHT22;6820;49.374;8.452;2023-08-06T16:00:44;16.92;99.99
13496;DHT22;6820;49.374;8.452;2023-08-06T16:04:46;16.91;99.99
13496;DHT22;6820;49.374;8.452;2023-08-06T16:08:48;16.88;99.99
13496;DHT22;6820;49.374;8.452;2023-08-06T16:12:50;16.90;99.99
13496;DHT22;6820;49.374;8.452;2023-08-06T16:16:51;16.92;99.99
13496;DHT22;6820;49.374;8.452;2023-08-06T16:20:54;16.90;99.99
13496;DHT22;6820;49.374;8.452;2023-08-06T16:24:55;16.88;99.99
13496;DHT22;6820;49.374;8.452;2023-08-06T16:28:57;16.87;99.99
13496;DHT22;6820;49.374;8.452;2023-08-06T16:32:59;16.84;99.99
13496;DHT22;6820;49.374;8.452;2023-08-06T16:37:00;16.85;99.99
13496;DHT22;6820;49.374;8.452;2023-08-06T16:41:02;16.87;99.99
13496;DHT22;6820;49.374;8.452;2023-08-06T16:45:05;16.85;99.99
13496;DHT22;6820;49.374;8.452;2023-08-06T16:49:07;16.85;99.99
13496;DHT22;6820;49.374;8.452;2023-08-06T16:53:09;16.88;99.99
13496;DHT22;6820;49.374;8.452;2023-08-06T16:57:11;16.88;99.99
13496;DHT22;6820;49.374;8.452;2023-08-06T17:01:13;16.98;99.99
13496;DHT22;6820;49.374;8.452;2023-08-06T17:05:16;16.90;99.99
13496;DHT22;6820;49.374;8.452;2023-08-06T17:09:18;16.92;99.99
13496;DHT22;6820;49.374;8.452;2023-08-06T17:13:19;16.98;99.99
13496;DHT22;6820;49.374;8.452;2023-08-06T17:17:21;16.98;99.99
13496;DHT22;6820;49.374;8.452;2023-08-06T17:21:23;16.98;99.99
13496;DHT22;6820;49.374;8.452;2023-08-06T17:25:26;16.99;99.99
13496;DHT22;6820;49.374;8.452;2023-08-06T17:29:27;16.95;99.99
13496;DHT22;6820;49.374;8.452;2023-08-06T17:33:29;16.87;99.99
13496;DHT22;6820;49.374;8.452;2023-08-06T17:37:30;16.88;99.99
13496;DHT22;6820;49.374;8.452;2023-08-06T17:41:32;16.90;99.99
13496;DHT22;6820;49.374;8.452;2023-08-06T17:45:53;16.88;99.99
13496;DHT22;6820;49.374;8.452;2023-08-06T17:49:55;16.90;99.99
13496;DHT22;6820;49.374;8.452;2023-08-06T17:53:57;16.88;99.99
13496;DHT22;6820;49.374;8.452;2023-08-06T17:57:58;16.87;99.99
13496;DHT22;6820;49.374;8.452;2023-08-06T18:02:00;16.80;99.99
13496;DHT22;6820;49.374;8.452;2023-08-06T18:06:02;16.78;99.99
13496;DHT22;6820;49.374;8.452;2023-08-06T18:10:04;16.78;99.99
13496;DHT22;6820;49.374;8.452;2023-08-06T18:14:06;16.75;99.99
13496;DHT22;6820;49.374;8.452;2023-08-06T18:18:07;16.69;99.99
13496;DHT22;6820;49.374;8.452;2023-08-06T18:22:10;16.66;99.99
13496;DHT22;6820;49.374;8.452;2023-08-06T18:26:12;16.63;99.99
13496;DHT22;6820;49.374;8.452;2023-08-06T18:30:14;16.63;99.99
13496;DHT22;6820;49.374;8.452;2023-08-06T18:34:15;16.59;99.99
13496;DHT22;6820;49.374;8.452;2023-08-06T18:38:17;16.59;99.99
13496;DHT22;6820;49.374;8.452;2023-08-06T18:42:19;16.54;99.99
13496;DHT22;6820;49.374;8.452;2023-08-06T18:46:21;16.51;99.99
13496;DHT22;6820;49.374;8.452;2023-08-06T18:50:23;16.47;99.99
13496;DHT22;6820;49.374;8.452;2023-08-06T18:54:24;16.44;99.99
13496;DHT22;6820;49.374;8.452;2023-08-06T18:58:26;16.42;99.99
13496;DHT22;6820;49.374;8.452;2023-08-06T19:02:28;16.44;99.99
13496;DHT22;6820;49.374;8.452;2023-08-06T19:06:30;16.41;99.99
13496;DHT22;6820;49.374;8.452;2023-08-06T19:10:33;16.41;99.99
13496;DHT22;6820;49.374;8.452;2023-08-06T19:14:35;16.40;99.99
13496;DHT22;6820;49.374;8.452;2023-08-06T19:18:37;16.36;99.99
13496;DHT22;6820;49.374;8.452;2023-08-06T19:22:39;16.37;99.99
13496;DHT22;6820;49.374;8.452;2023-08-06T19:26:40;16.40;99.99
13496;DHT22;6820;49.374;8.452;2023-08-06T19:30:43;16.33;99.99
13496;DHT22;6820;49.374;8.452;2023-08-06T19:34:45;16.30;99.99
13496;DHT22;6820;49.374;8.452;2023-08-06T19:38:46;16.27;99.99
13496;DHT22;6820;49.374;8.452;2023-08-06T19:42:48;16.22;99.99
13496;DHT22;6820;49.374;8.452;2023-08-06T19:46:50;16.17;99.99
13496;DHT22;6820;49.374;8.452;2023-08-06T19:50:52;16.18;99.99
13496;DHT22;6820;49.374;8.452;2023-08-06T19:54:54;16.16;99.99
13496;DHT22;6820;49.374;8.452;2023-08-06T19:58:56;16.17;99.99
13496;DHT22;6820;49.374;8.452;2023-08-06T20:02:58;16.11;99.99
13496;DHT22;6820;49.374;8.452;2023-08-06T20:07:00;16.11;99.99
13496;DHT22;6820;49.374;8.452;2023-08-06T20:11:01;16.03;99.99
13496;DHT22;6820;49.374;8.452;2023-08-06T20:15:04;16.03;99.99
13496;DHT22;6820;49.374;8.452;2023-08-06T20:19:06;15.96;99.99
13496;DHT22;6820;49.374;8.452;2023-08-06T20:23:08;15.95;99.99
13496;DHT22;6820;49.374;8.452;2023-08-06T20:27:09;15.93;99.99
13496;DHT22;6820;49.374;8.452;2023-08-06T20:31:11;15.89;99.99
13496;DHT22;6820;49.374;8.452;2023-08-06T20:35:13;15.78;99.99
13496;DHT22;6820;49.374;8.452;2023-08-06T20:39:14;15.73;99.99
13496;DHT22;6820;49.374;8.452;2023-08-06T20:43:16;15.66;99.99
13496;DHT22;6820;49.374;8.452;2023-08-06T20:47:19;15.58;99.99
13496;DHT22;6820;49.374;8.452;2023-08-06T20:51:20;15.53;99.99
13496;DHT22;6820;49.374;8.452;2023-08-06T20:55:25;15.48;99.99
13496;DHT22;6820;49.374;8.452;2023-08-06T20:59:28;15.43;99.99
13496;DHT22;6820;49.374;8.452;2023-08-06T21:03:30;15.41;99.99
13496;DHT22;6820;49.374;8.452;2023-08-06T21:07:32;15.38;99.99
13496;DHT22;6820;49.374;8.452;2023-08-06T21:11:34;15.34;99.99
13496;DHT22;6820;49.374;8.452;2023-08-06T21:15:35;15.33;99.99
13496;DHT22;6820;49.374;8.452;2023-08-06T21:19:37;15.33;99.99
13496;DHT22;6820;49.374;8.452;2023-08-06T21:23:39;15.31;99.99
13496;DHT22;6820;49.374;8.452;2023-08-06T21:27:42;15.31;99.99
13496;DHT22;6820;49.374;8.452;2023-08-06T21:31:48;15.31;99.99
13496;DHT22;6820;49.374;8.452;2023-08-06T21:35:50;15.28;99.99
13496;DHT22;6820;49.374;8.452;2023-08-06T21:39:52;15.31;99.99
13496;DHT22;6820;49.374;8.452;2023-08-06T21:43:54;15.34;99.99
13496;DHT22;6820;49.374;8.452;2023-08-06T21:47:56;15.33;99.99
13496;DHT22;6820;49.374;8.452;2023-08-06T21:51:58;15.30;99.99
13496;DHT22;6820;49.374;8.452;2023-08-06T21:56:00;15.25;99.99
13496;DHT22;6820;49.374;8.452;2023-08-06T22:00:06;15.25;99.99
13496;DHT22;6820;49.374;8.452;2023-08-06T22:04:09;15.27;99.99
13496;DHT22;6820;49.374;8.452;2023-08-06T22:08:10;15.23;99.99
13496;DHT22;6820;49.374;8.452;2023-08-06T22:12:12;15.23;99.99
13496;DHT22;6820;49.374;8.452;2023-08-06T22:16:14;15.23;99.99
13496;DHT22;6820;49.374;8.452;2023-08-06T22:20:16;15.23;99.99
13496;DHT22;6820;49.374;8.452;2023-08-06T22:24:17;15.23;99.99
13496;DHT22;6820;49.374;8.452;2023-08-06T22:28:20;15.25;99.99
13496;DHT22;6820;49.374;8.452;2023-08-06T22:32:22;15.23;99.99
13496;DHT22;6820;49.374;8.452;2023-08-06T22:36:24;15.20;99.99
13496;DHT22;6820;49.374;8.452;2023-08-06T22:40:26;15.19;99.99
13496;DHT22;6820;49.374;8.452;2023-08-06T22:44:28;15.13;99.99
13496;DHT22;6820;49.374;8.452;2023-08-06T22:48:30;15.13;99.99
13496;DHT22;6820;49.374;8.452;2023-08-06T22:52:31;15.09;99.99
13496;DHT22;6820;49.374;8.452;2023-08-06T22:56:34;15.04;99.99
13496;DHT22;6820;49.374;8.452;2023-08-06T23:00:36;15.01;99.99
13496;DHT22;6820;49.374;8.452;2023-08-06T23:04:37;14.98;99.99
13496;DHT22;6820;49.374;8.452;2023-08-06T23:08:39;14.95;99.99
13496;DHT22;6820;49.374;8.452;2023-08-06T23:12:41;14.94;99.99
13496;DHT22;6820;49.374;8.452;2023-08-06T23:16:43;14.94;99.99
13496;DHT22;6820;49.374;8.452;2023-08-06T23:20:44;14.94;99.99
13496;DHT22;6820;49.374;8.452;2023-08-06T23:24:46;14.91;99.99
13496;DHT22;6820;49.374;8.452;2023-08-06T23:28:48;14.93;99.99
13496;DHT22;6820;49.374;8.452;2023-08-06T23:32:52;14.90;99.99
13496;DHT22;6820;49.374;8.452;2023-08-06T23:36:54;14.87;99.99
13496;DHT22;6820;49.374;8.452;2023-08-06T23:40:55;14.86;99.99
13496;DHT22;6820;49.374;8.452;2023-08-06T23:44:57;14.86;99.99
13496;DHT22;6820;49.374;8.452;2023-08-06T23:48:58;14.85;99.99
13496;DHT22;6820;49.374;8.452;2023-08-06T23:53:00;14.86;99.99
13496;DHT22;6820;49.374;8.452;2023-08-06T23:57:02;14.82;99.99
